createdAt,value
2024-05-09T00:00:40.716Z,11.07
2024-05-09T00:03:10.261Z,13.47
2024-05-09T00:05:40.577Z,14.63
2024-05-09T00:08:10.395Z,16.23
2024-05-09T00:10:39.490Z,11.80
2024-05-09T00:13:08.524Z,12.67
2024-05-09T00:15:36.269Z,10.90
2024-05-09T00:18:05.770Z,13.77
2024-05-09T00:20:38.612Z,12.20
2024-05-09T00:23:12.890Z,12.00
2024-05-09T00:25:44.486Z,11.97
2024-05-09T00:28:12.677Z,13.50
2024-05-09T00:30:40.063Z,13.47
2024-05-09T00:33:09.216Z,12.07
2024-05-09T00:35:37.682Z,16.60
2024-05-09T00:38:05.113Z,11.43
2024-05-09T00:40:40.527Z,15.27
2024-05-09T00:43:10.223Z,12.00
2024-05-09T00:45:37.596Z,12.27
2024-05-09T00:48:07.513Z,12.50
2024-05-09T00:50:38.246Z,14.17
2024-05-09T00:53:12.823Z,13.80
2024-05-09T00:55:41.012Z,13.17
2024-05-09T00:58:10.654Z,12.33
2024-05-09T01:00:40.312Z,11.80
2024-05-09T01:03:13.351Z,12.47
2024-05-09T01:05:42.664Z,14.50
2024-05-09T01:08:10.956Z,12.50
2024-05-09T01:10:38.302Z,12.67
2024-05-09T01:13:06.295Z,11.27
2024-05-09T01:15:35.147Z,14.57
2024-05-09T01:18:10.632Z,14.03
2024-05-09T01:20:42.342Z,11.73
2024-05-09T01:23:12.768Z,10.43
2024-05-09T01:25:41.124Z,12.43
2024-05-09T01:28:07.962Z,13.60
2024-05-09T01:30:37.255Z,14.13
2024-05-09T01:33:10.170Z,11.53
2024-05-09T01:35:42.042Z,14.97
2024-05-09T01:38:12.777Z,14.00
2024-05-09T01:40:40.492Z,14.63
2024-05-09T01:43:09.215Z,12.57
2024-05-09T01:45:37.291Z,10.60
2024-05-09T01:48:04.928Z,16.50
2024-05-09T01:50:38.364Z,10.50
2024-05-09T01:53:13.517Z,13.00
2024-05-09T01:55:41.081Z,12.40
2024-05-09T01:58:08.798Z,14.13
2024-05-09T02:00:40.292Z,13.67
2024-05-09T02:03:16.607Z,13.07
2024-05-09T02:05:50.255Z,14.03
2024-05-09T02:08:21.735Z,17.23
2024-05-09T02:10:50.044Z,11.47
2024-05-09T02:13:17.718Z,15.20
2024-05-09T02:15:44.853Z,11.30
2024-05-09T02:18:12.337Z,13.07
2024-05-09T02:20:41.433Z,13.43
2024-05-09T02:23:09.759Z,13.70
2024-05-09T02:25:36.781Z,15.87
2024-05-09T02:28:04.022Z,13.87
2024-05-09T02:30:39.263Z,15.00
2024-05-09T02:33:11.846Z,13.90
2024-05-09T02:35:41.014Z,12.13
2024-05-09T02:38:09.456Z,14.53
2024-05-09T02:40:38.813Z,14.07
2024-05-09T02:43:08.420Z,12.27
2024-05-09T02:45:36.697Z,16.77
2024-05-09T02:48:04.118Z,13.23
2024-05-09T02:50:37.835Z,14.13
2024-05-09T02:53:13.693Z,15.97
2024-05-09T02:55:41.845Z,16.57
2024-05-09T02:58:09.587Z,13.33
2024-05-09T03:00:40.661Z,13.03
2024-05-09T03:03:14.486Z,15.67
2024-05-09T03:05:43.974Z,14.37
2024-05-09T03:08:11.153Z,15.60
2024-05-09T03:10:39.237Z,15.67
2024-05-09T03:13:13.339Z,13.13
2024-05-09T03:15:42.448Z,16.20
2024-05-09T03:18:09.891Z,16.07
2024-05-09T03:20:38.399Z,17.13
2024-05-09T03:23:07.847Z,15.10
2024-05-09T03:25:35.842Z,17.27
2024-05-09T03:28:03.597Z,17.27
2024-05-09T03:30:39.348Z,19.53
2024-05-09T03:33:15.691Z,14.23
2024-05-09T03:35:46.230Z,17.40
2024-05-09T03:38:13.357Z,17.77
2024-05-09T03:40:50.830Z,15.97
2024-05-09T03:43:19.244Z,18.50
2024-05-09T03:45:48.355Z,15.70
2024-05-09T03:48:15.743Z,19.77
2024-05-09T03:50:42.908Z,17.10
2024-05-09T03:53:11.553Z,16.43
2024-05-09T03:55:39.331Z,16.47
2024-05-09T03:58:07.845Z,15.50
2024-05-09T04:00:38.858Z,19.20
2024-05-09T04:03:09.727Z,17.13
2024-05-09T04:05:43.799Z,18.33
2024-05-09T04:08:11.814Z,17.97
2024-05-09T04:10:38.963Z,17.53
2024-05-09T04:13:05.928Z,19.77
2024-05-09T04:15:33.082Z,18.83
2024-05-09T04:18:01.052Z,16.73
2024-05-09T04:20:36.660Z,18.50
2024-05-09T04:23:08.373Z,18.77
2024-05-09T04:25:36.069Z,16.47
2024-05-09T04:28:03.252Z,15.67
2024-05-09T04:30:36.868Z,19.90
2024-05-09T04:33:08.862Z,17.60
2024-05-09T04:35:38.290Z,13.37
2024-05-09T04:38:06.283Z,15.00
2024-05-09T04:40:36.084Z,14.87
2024-05-09T04:43:05.294Z,16.27
2024-05-09T04:45:32.385Z,17.43
2024-05-09T04:47:59.538Z,13.67
2024-05-09T04:50:35.550Z,13.47
2024-05-09T04:53:06.331Z,12.60
2024-05-09T04:55:34.038Z,13.65
2024-05-09T04:58:01.706Z,13.27
2024-05-09T05:00:35.728Z,15.32
2024-05-09T05:03:07.609Z,13.13
2024-05-09T05:05:40.320Z,12.27
2024-05-09T05:08:17.967Z,15.05
2024-05-09T05:10:46.779Z,13.52
2024-05-09T05:13:23.082Z,13.35
2024-05-09T05:15:55.209Z,13.82
2024-05-09T05:18:23.080Z,11.82
2024-05-09T05:20:50.482Z,12.60
2024-05-09T05:23:21.667Z,15.70
2024-05-09T05:25:50.577Z,14.88
2024-05-09T05:28:18.533Z,15.23
2024-05-09T05:30:45.857Z,13.02
2024-05-09T05:33:15.377Z,12.20
2024-05-09T05:35:42.772Z,15.27
2024-05-09T05:38:11.240Z,12.40
2024-05-09T05:40:39.770Z,13.35
2024-05-09T05:43:08.919Z,11.85
2024-05-09T05:45:36.131Z,12.52
2024-05-09T05:48:06.092Z,11.43
2024-05-09T05:50:36.780Z,11.70
2024-05-09T05:53:09.617Z,13.13
2024-05-09T05:55:39.209Z,12.85
2024-05-09T05:58:12.541Z,13.23
2024-05-09T06:00:41.634Z,11.73
2024-05-09T06:03:10.454Z,12.85
2024-05-09T06:05:43.455Z,11.73
2024-05-09T06:08:11.207Z,12.48
2024-05-09T06:10:40.407Z,11.40
2024-05-09T06:13:11.562Z,13.48
2024-05-09T06:15:42.161Z,12.13
2024-05-09T06:18:10.958Z,12.48
2024-05-09T06:20:40.343Z,12.30
2024-05-09T06:23:08.889Z,12.43
2024-05-09T06:25:36.726Z,11.52
2024-05-09T06:28:04.438Z,12.18
2024-05-09T06:30:40.164Z,11.98
2024-05-09T06:33:11.777Z,11.65
2024-05-09T06:35:40.835Z,12.18
2024-05-09T06:38:11.935Z,11.50
2024-05-09T06:40:42.634Z,14.57
2024-05-09T06:43:16.766Z,11.40
2024-05-09T06:45:47.736Z,10.80
2024-05-09T06:48:15.497Z,11.57
2024-05-09T06:50:42.466Z,11.10
2024-05-09T06:53:09.648Z,10.65
2024-05-09T06:55:37.906Z,11.63
2024-05-09T06:58:09.123Z,11.25
2024-05-09T07:00:39.742Z,11.27
2024-05-09T07:03:14.430Z,13.35
2024-05-09T07:05:44.556Z,10.70
2024-05-09T07:08:11.986Z,11.07
2024-05-09T07:10:39.087Z,10.45
2024-05-09T07:13:13.445Z,10.77
2024-05-09T07:15:42.096Z,11.40
2024-05-09T07:18:13.955Z,11.65
2024-05-09T07:20:41.836Z,10.18
2024-05-09T07:23:10.699Z,10.70
2024-05-09T07:25:38.300Z,13.63
2024-05-09T07:28:05.911Z,10.60
2024-05-09T07:30:34.583Z,10.50
2024-05-09T07:33:03.693Z,9.82
2024-05-09T07:35:31.525Z,9.52
2024-05-09T07:37:58.848Z,9.85
2024-05-09T07:40:33.133Z,9.63
2024-05-09T07:43:04.983Z,10.10
2024-05-09T07:45:48.205Z,7.88
2024-05-09T07:50:00.756Z,7.95
2024-05-09T07:53:49.697Z,6.25
2024-05-09T07:56:21.976Z,6.38
2024-05-09T07:58:51.855Z,6.13
2024-05-09T08:01:19.764Z,5.63
2024-05-09T08:03:47.145Z,6.95
2024-05-09T08:06:14.350Z,4.95
2024-05-09T08:08:41.309Z,4.68
2024-05-09T08:11:08.430Z,5.93
2024-05-09T08:13:35.293Z,5.50
2024-05-09T08:16:02.182Z,5.50
2024-05-09T08:18:29.610Z,7.15
2024-05-09T08:20:58.251Z,5.35
2024-05-09T08:23:25.390Z,3.90
2024-05-09T08:25:55.527Z,5.07
2024-05-09T08:28:22.426Z,4.93
2024-05-09T08:30:49.732Z,5.28
2024-05-09T08:33:17.173Z,6.50
2024-05-09T08:35:44.134Z,5.40
2024-05-09T08:38:11.117Z,6.88
2024-05-09T08:40:38.691Z,5.15
2024-05-09T08:43:10.038Z,5.80
2024-05-09T08:45:43.551Z,4.60
2024-05-09T08:48:12.957Z,4.07
2024-05-09T08:50:41.215Z,6.05
2024-05-09T08:53:09.210Z,4.57
2024-05-09T08:55:40.564Z,3.83
2024-05-09T08:58:15.423Z,4.10
2024-05-09T09:00:44.855Z,4.18
2024-05-09T09:03:17.399Z,4.22
2024-05-09T09:06:06.532Z,8.55
2024-05-09T09:08:33.665Z,6.20
2024-05-09T09:11:00.876Z,5.55
2024-05-09T09:13:28.147Z,6.88
2024-05-09T09:15:58.689Z,6.45
2024-05-09T09:18:26.991Z,6.88
2024-05-09T09:20:54.278Z,5.82
2024-05-09T09:23:21.346Z,4.18
2024-05-09T09:25:48.253Z,5.72
2024-05-09T09:28:15.630Z,6.80
2024-05-09T09:30:43.538Z,5.07
2024-05-09T09:33:11.680Z,7.78
2024-05-09T09:35:42.066Z,4.40
2024-05-09T09:38:10.708Z,4.88
2024-05-09T09:40:45.788Z,6.80
2024-05-09T09:43:20.338Z,7.60
2024-05-09T09:45:51.180Z,8.40
2024-05-09T09:48:20.653Z,6.07
2024-05-09T09:50:48.792Z,5.00
2024-05-09T09:53:16.963Z,7.47
2024-05-09T09:55:44.036Z,6.32
2024-05-09T09:58:14.245Z,5.65
2024-05-09T10:00:42.975Z,4.43
2024-05-09T10:03:10.153Z,6.93
2024-05-09T10:05:37.945Z,5.68
2024-05-09T10:08:07.007Z,4.70
2024-05-09T10:10:35.728Z,8.20
2024-05-09T10:13:06.950Z,5.18
2024-05-09T10:15:48.364Z,4.50
2024-05-09T10:18:15.728Z,4.47
2024-05-09T10:20:46.435Z,6.20
2024-05-09T10:23:24.550Z,5.72
2024-05-09T10:26:05.314Z,5.80
2024-05-09T10:28:35.348Z,9.13
2024-05-09T10:31:13.645Z,4.90
2024-05-09T10:33:50.465Z,5.45
2024-05-09T10:36:22.301Z,5.95
2024-05-09T10:38:50.642Z,5.68
2024-05-09T10:41:18.567Z,7.20
2024-05-09T10:43:46.345Z,7.38
2024-05-09T10:46:14.847Z,8.40
2024-05-09T10:48:43.549Z,8.60
2024-05-09T10:51:10.819Z,5.45
2024-05-09T10:53:45.182Z,5.72
2024-05-09T10:56:14.296Z,9.13
2024-05-09T10:58:41.369Z,6.55
2024-05-09T11:01:10.385Z,6.38
2024-05-09T11:03:38.171Z,7.50
2024-05-09T11:06:06.405Z,5.82
2024-05-09T11:08:35.046Z,7.90
2024-05-09T11:11:07.173Z,7.80
2024-05-09T11:13:37.233Z,5.85
2024-05-09T11:16:05.988Z,6.63
2024-05-09T11:18:37.922Z,8.48
2024-05-09T11:21:13.391Z,8.88
2024-05-09T11:23:41.375Z,6.78
2024-05-09T11:26:09.935Z,5.55
2024-05-09T11:28:36.825Z,4.75
2024-05-09T11:31:09.881Z,5.85
2024-05-09T11:33:39.272Z,7.72
2024-05-09T11:36:07.554Z,7.30
2024-05-09T11:38:34.607Z,7.10
2024-05-09T11:41:02.873Z,6.80
2024-05-09T11:43:29.791Z,6.57
2024-05-09T11:45:58.156Z,6.53
2024-05-09T11:48:25.976Z,7.20
2024-05-09T11:50:55.036Z,5.13
2024-05-09T11:53:22.246Z,7.90
2024-05-09T11:55:49.096Z,6.85
2024-05-09T11:58:17.905Z,8.25
2024-05-09T12:00:46.108Z,5.72
2024-05-09T12:03:13.353Z,6.05
2024-05-09T12:05:40.468Z,5.68
2024-05-09T12:08:07.922Z,7.68
2024-05-09T12:10:36.352Z,5.25
2024-05-09T12:13:05.906Z,5.93
2024-05-09T12:15:37.459Z,5.57
2024-05-09T12:18:06.564Z,6.82
2024-05-09T12:20:38.242Z,6.53
2024-05-09T12:23:09.795Z,7.13
2024-05-09T12:25:38.678Z,6.90
2024-05-09T12:28:06.389Z,7.68
2024-05-09T12:30:38.186Z,6.57
2024-05-09T12:33:12.410Z,6.15
2024-05-09T12:35:42.324Z,7.07
2024-05-09T12:38:10.898Z,7.35
2024-05-09T12:40:39.126Z,6.00
2024-05-09T12:43:08.833Z,8.00
2024-05-09T12:45:37.196Z,5.13
2024-05-09T12:48:07.581Z,6.65
2024-05-09T12:50:35.300Z,9.15
2024-05-09T12:53:03.718Z,7.35
2024-05-09T12:55:40.336Z,5.60
2024-05-09T12:58:18.203Z,5.97
2024-05-09T13:00:46.221Z,7.03
2024-05-09T13:03:13.664Z,5.40
2024-05-09T13:05:46.874Z,5.60
2024-05-09T13:08:19.814Z,9.68
2024-05-09T13:10:47.959Z,8.13
2024-05-09T13:13:15.349Z,6.53
2024-05-09T13:15:42.464Z,7.10
2024-05-09T13:18:10.644Z,5.72
2024-05-09T13:20:38.185Z,7.50
2024-05-09T13:23:07.687Z,6.82
2024-05-09T13:25:39.028Z,8.90
2024-05-09T13:28:09.998Z,8.25
2024-05-09T13:30:40.828Z,7.28
2024-05-09T13:33:12.036Z,8.05
2024-05-09T13:35:48.934Z,8.70
2024-05-09T13:38:22.109Z,7.03
2024-05-09T13:40:50.695Z,9.00
2024-05-09T13:43:19.067Z,7.90
2024-05-09T13:45:47.041Z,5.65
2024-05-09T13:48:14.529Z,7.65
2024-05-09T13:50:41.904Z,6.57
2024-05-09T13:53:09.448Z,6.15
2024-05-09T13:55:38.632Z,9.05
2024-05-09T13:58:06.914Z,9.40
2024-05-09T14:00:44.278Z,5.45
2024-05-09T14:03:18.251Z,6.40
2024-05-09T14:05:47.953Z,8.13
2024-05-09T14:08:17.917Z,6.50
2024-05-09T14:10:47.307Z,8.25
2024-05-09T14:13:15.716Z,6.75
2024-05-09T14:15:43.297Z,7.32
2024-05-09T14:18:13.387Z,9.32
2024-05-09T14:20:41.979Z,8.40
2024-05-09T14:23:09.562Z,7.60
2024-05-09T14:25:41.983Z,6.97
2024-05-09T14:28:11.356Z,5.65
2024-05-09T14:30:39.449Z,7.32
2024-05-09T14:33:08.429Z,6.85
2024-05-09T14:35:38.612Z,7.53
2024-05-09T14:38:07.441Z,7.28
2024-05-09T14:40:41.425Z,7.68
2024-05-09T14:43:12.863Z,6.78
2024-05-09T14:45:41.553Z,5.15
2024-05-09T14:48:09.990Z,5.40
2024-05-09T14:50:39.813Z,5.97
2024-05-09T14:53:10.164Z,9.05
2024-05-09T14:55:40.858Z,5.35
2024-05-09T14:58:13.131Z,8.95
2024-05-09T15:00:46.365Z,6.43
2024-05-09T15:03:18.281Z,7.07
2024-05-09T15:05:46.110Z,10.30
2024-05-09T15:08:13.574Z,6.63
2024-05-09T15:10:41.135Z,6.03
2024-05-09T15:13:10.351Z,9.05
2024-05-09T15:15:44.906Z,5.90
2024-05-09T15:18:13.305Z,7.07
2024-05-09T15:20:41.827Z,6.57
2024-05-09T15:23:09.201Z,11.32
2024-05-09T15:25:37.092Z,9.15
2024-05-09T15:28:07.792Z,6.90
2024-05-09T15:30:35.890Z,6.53
2024-05-09T15:33:04.287Z,6.35
2024-05-09T15:35:32.022Z,8.60
2024-05-09T15:38:00.208Z,7.22
2024-05-09T15:40:37.633Z,9.00
2024-05-09T15:43:09.557Z,8.27
2024-05-09T15:45:40.926Z,8.82
2024-05-09T15:48:10.112Z,17.92
2024-05-09T15:50:40.985Z,11.75
2024-05-09T15:53:11.978Z,6.40
2024-05-09T15:55:39.855Z,5.60
2024-05-09T15:58:07.641Z,9.48
2024-05-09T16:00:39.463Z,6.32
2024-05-09T16:03:14.335Z,10.18
2024-05-09T16:05:44.660Z,6.68
2024-05-09T16:08:13.124Z,8.15
2024-05-09T16:10:44.581Z,10.38
2024-05-09T16:13:13.096Z,7.30
2024-05-09T16:15:40.840Z,7.38
2024-05-09T16:18:08.495Z,7.22
2024-05-09T16:20:40.249Z,6.65
2024-05-09T16:23:10.192Z,8.85
2024-05-09T16:25:38.057Z,4.80
2024-05-09T16:28:09.131Z,7.15
2024-05-09T16:30:39.419Z,6.60
2024-05-09T16:33:07.277Z,7.65
2024-05-09T16:35:35.247Z,7.28
2024-05-09T16:38:04.316Z,8.27
2024-05-09T16:40:38.537Z,7.53
2024-05-09T16:43:09.560Z,7.90
2024-05-09T16:45:39.502Z,8.02
2024-05-09T16:48:10.813Z,5.88
2024-05-09T16:50:38.682Z,6.25
2024-05-09T16:53:06.914Z,8.20
2024-05-09T16:55:35.360Z,8.63
2024-05-09T16:58:04.257Z,9.97
2024-05-09T17:00:39.911Z,7.07
2024-05-09T17:03:15.054Z,7.28
2024-05-09T17:05:44.217Z,10.07
2024-05-09T17:08:12.421Z,7.03
2024-05-09T17:10:40.006Z,11.60
2024-05-09T17:13:08.237Z,7.50
2024-05-09T17:15:37.398Z,6.68
2024-05-09T17:18:07.209Z,6.33
2024-05-09T17:20:37.121Z,6.05
2024-05-09T17:23:13.941Z,8.52
2024-05-09T17:25:42.340Z,7.93
2024-05-09T17:28:10.912Z,9.27
2024-05-09T17:30:40.405Z,13.73
2024-05-09T17:33:10.700Z,14.47
2024-05-09T17:35:39.134Z,9.60
2024-05-09T17:38:07.597Z,17.17
2024-05-09T17:40:37.268Z,9.85
2024-05-09T17:43:09.003Z,10.43
2024-05-09T17:45:39.188Z,11.53
2024-05-09T17:48:10.690Z,10.40
2024-05-09T17:50:42.274Z,9.40
2024-05-09T17:53:11.323Z,11.37
2024-05-09T17:55:39.259Z,7.67
2024-05-09T17:58:06.784Z,7.57
2024-05-09T18:00:39.428Z,7.37
2024-05-09T18:03:13.666Z,9.05
2024-05-09T18:05:43.075Z,7.83
2024-05-09T18:08:11.460Z,10.73
2024-05-09T18:10:41.426Z,7.97
2024-05-09T18:13:10.164Z,8.07
2024-05-09T18:15:38.412Z,10.10
2024-05-09T18:18:07.202Z,7.07
2024-05-09T18:20:42.504Z,7.60
2024-05-09T18:23:16.108Z,8.97
2024-05-09T18:25:45.625Z,8.70
2024-05-09T18:28:13.347Z,9.40
2024-05-09T18:30:44.162Z,8.57
2024-05-09T18:33:12.399Z,9.30
2024-05-09T18:35:43.235Z,8.70
2024-05-09T18:38:13.688Z,8.53
2024-05-09T18:40:43.872Z,10.47
2024-05-09T18:43:14.325Z,8.10
2024-05-09T18:45:42.016Z,8.50
2024-05-09T18:48:10.371Z,10.47
2024-05-09T18:50:40.967Z,9.23
2024-05-09T18:53:15.314Z,9.50
2024-05-09T18:55:43.077Z,9.10
2024-05-09T18:58:10.752Z,9.50
2024-05-09T19:00:40.486Z,10.27
2024-05-09T19:03:13.067Z,11.47
2024-05-09T19:05:44.068Z,10.53
2024-05-09T19:08:18.639Z,11.17
2024-05-09T19:10:48.540Z,11.93
2024-05-09T19:13:19.630Z,10.77
2024-05-09T19:15:47.495Z,12.20
2024-05-09T19:18:25.224Z,9.83
2024-05-09T19:20:56.929Z,10.50
2024-05-09T19:23:24.270Z,8.90
2024-05-09T19:25:53.264Z,10.30
2024-05-09T19:28:23.595Z,13.47
2024-05-09T19:30:51.179Z,11.10
2024-05-09T19:33:19.490Z,9.43
2024-05-09T19:35:47.103Z,9.67
2024-05-09T19:38:14.615Z,10.43
2024-05-09T19:40:42.373Z,11.80
2024-05-09T19:43:11.235Z,11.10
2024-05-09T19:45:39.512Z,10.37
2024-05-09T19:48:07.683Z,11.77
2024-05-09T19:50:41.567Z,9.87
2024-05-09T19:53:12.391Z,9.83
2024-05-09T19:55:40.767Z,9.83
2024-05-09T19:58:09.683Z,13.37
2024-05-09T20:00:41.200Z,11.30
2024-05-09T20:03:11.889Z,10.63
2024-05-09T20:05:40.932Z,10.17
2024-05-09T20:08:08.460Z,11.30
2024-05-09T20:10:36.740Z,9.57
2024-05-09T20:13:06.917Z,11.67
2024-05-09T20:15:36.850Z,11.27
2024-05-09T20:18:06.103Z,10.27
2024-05-09T20:20:39.328Z,11.93
2024-05-09T20:23:10.684Z,10.57
2024-05-09T20:25:37.954Z,9.90
2024-05-09T20:28:06.589Z,10.97
2024-05-09T20:30:35.602Z,12.33
2024-05-09T20:33:04.869Z,13.37
2024-05-09T20:35:33.474Z,13.50
2024-05-09T20:38:02.552Z,11.67
2024-05-09T20:40:34.382Z,10.53
2024-05-09T20:43:06.022Z,11.43
2024-05-09T20:45:33.853Z,10.43
2024-05-09T20:48:01.537Z,13.70
2024-05-09T20:50:36.746Z,9.93
2024-05-09T20:53:15.221Z,9.07
2024-05-09T20:55:44.631Z,9.20
2024-05-09T20:58:12.435Z,10.40
2024-05-09T21:00:43.262Z,10.07
2024-05-09T21:03:14.466Z,10.90
2024-05-09T21:05:43.021Z,11.13
2024-05-09T21:08:10.358Z,9.43
2024-05-09T21:10:38.288Z,9.50
2024-05-09T21:13:06.993Z,12.00
2024-05-09T21:15:34.831Z,9.70
2024-05-09T21:18:02.443Z,10.73
2024-05-09T21:20:32.882Z,9.60
2024-05-09T21:23:01.597Z,10.33
2024-05-09T21:25:29.531Z,9.93
2024-05-09T21:27:56.819Z,9.97
2024-05-09T21:30:32.644Z,9.47
2024-05-09T21:33:13.285Z,11.17
2024-05-09T21:35:43.282Z,11.13
2024-05-09T21:38:11.171Z,10.80
2024-05-09T21:40:38.844Z,10.53
2024-05-09T21:43:07.824Z,12.77
2024-05-09T21:45:36.139Z,9.57
2024-05-09T21:48:04.652Z,9.67
2024-05-09T21:50:39.075Z,10.27
2024-05-09T21:53:09.545Z,11.03
2024-05-09T21:55:36.622Z,10.03
2024-05-09T21:58:04.221Z,10.73
2024-05-09T22:00:36.987Z,10.33
2024-05-09T22:03:07.718Z,13.73
2024-05-09T22:05:35.899Z,9.97
2024-05-09T22:08:03.490Z,10.17
2024-05-09T22:10:34.760Z,11.63
2024-05-09T22:13:05.114Z,11.10
2024-05-09T22:15:38.212Z,10.73
2024-05-09T22:18:08.639Z,11.27
2024-05-09T22:20:38.998Z,13.57
2024-05-09T22:23:07.791Z,9.87
2024-05-09T22:25:35.505Z,12.83
2024-05-09T22:28:03.188Z,12.50
2024-05-09T22:30:36.433Z,11.37
2024-05-09T22:33:07.694Z,12.27
2024-05-09T22:35:35.527Z,13.50
2024-05-09T22:38:06.396Z,11.43
2024-05-09T22:40:42.828Z,12.40
2024-05-09T22:46:15.016Z,13.40
2024-05-09T22:48:42.174Z,14.23
2024-05-09T22:51:09.216Z,10.57
2024-05-09T22:53:36.269Z,10.57
2024-05-09T22:56:03.106Z,15.23
2024-05-09T22:58:30.352Z,11.47
2024-05-09T23:00:57.489Z,10.23
2024-05-09T23:03:24.670Z,10.63
2024-05-09T23:05:51.820Z,12.90
2024-05-09T23:08:19.019Z,10.87
2024-05-09T23:10:46.261Z,12.23
2024-05-09T23:13:13.326Z,11.47
2024-05-09T23:15:40.833Z,13.10
2024-05-09T23:18:08.472Z,14.30
2024-05-09T23:20:39.029Z,11.70
2024-05-09T23:23:08.333Z,11.87
2024-05-09T23:25:37.203Z,12.57
2024-05-09T23:28:04.599Z,12.13
2024-05-09T23:30:37.677Z,11.93
2024-05-09T23:33:08.236Z,11.63
2024-05-09T23:35:35.843Z,11.10
2024-05-09T23:38:02.964Z,12.83
2024-05-09T23:40:38.324Z,11.23
2024-05-09T23:43:12.225Z,11.20
2024-05-09T23:45:40.105Z,11.57
2024-05-09T23:48:07.849Z,13.43
2024-05-09T23:50:37.923Z,11.70
2024-05-09T23:53:08.037Z,15.67
2024-05-09T23:55:36.379Z,13.60
2024-05-09T23:58:03.621Z,12.60
